createdAt,value
2022-11-10T00:00:29.940Z,12.30
2022-11-10T00:03:01.585Z,12.20
2022-11-10T00:05:29.758Z,12.20
2022-11-10T00:08:02.660Z,12.20
2022-11-10T00:10:30.565Z,12.20
2022-11-10T00:13:01.760Z,12.20
2022-11-10T00:15:47.312Z,12.20
2022-11-10T00:18:15.215Z,12.20
2022-11-10T00:20:42.990Z,12.20
2022-11-10T00:23:12.005Z,12.20
2022-11-10T00:25:39.728Z,12.20
2022-11-10T00:28:07.403Z,12.20
2022-11-10T00:30:37.945Z,12.20
2022-11-10T00:33:05.646Z,12.20
2022-11-10T00:35:33.367Z,12.20
2022-11-10T00:38:01.045Z,12.20
2022-11-10T00:40:30.203Z,12.20
2022-11-10T00:42:57.927Z,12.10
2022-11-10T00:45:25.685Z,12.10
2022-11-10T00:47:53.430Z,12.10
2022-11-10T00:50:21.451Z,12.10
2022-11-10T00:52:49.197Z,12.10
2022-11-10T00:55:16.929Z,12.00
2022-11-10T00:57:45.933Z,12.00
2022-11-10T01:00:14.164Z,12.00
2022-11-10T05:02:53.452Z,10.30
2022-11-10T05:05:21.307Z,10.00
2022-11-10T05:07:49.379Z,10.00
2022-11-10T05:10:17.293Z,10.10
2022-11-10T05:15:13.242Z,10.10
2022-11-10T05:17:40.970Z,10.10
2022-11-10T05:20:11.223Z,10.10
2022-11-10T05:22:38.922Z,10.10
2022-11-10T05:25:08.376Z,10.10
2022-11-10T05:27:36.086Z,10.10
2022-11-10T05:30:03.971Z,10.10
2022-11-10T05:32:31.693Z,10.10
2022-11-10T05:34:59.410Z,10.10
2022-11-10T05:37:28.470Z,10.00
2022-11-10T05:39:56.165Z,10.00
2022-11-10T05:42:23.945Z,10.00
2022-11-10T05:44:51.670Z,10.00
2022-11-10T05:47:19.368Z,10.10
2022-11-10T05:49:47.081Z,10.00
2022-11-10T05:52:14.836Z,9.90
2022-11-10T05:54:43.917Z,9.90
2022-11-10T05:57:11.599Z,10.00
2022-11-10T05:59:39.338Z,10.00
2022-11-10T06:02:07.024Z,10.10
2022-11-10T06:04:34.785Z,10.10
2022-11-10T06:07:03.533Z,10.00
2022-11-10T06:09:31.284Z,10.00
2022-11-10T06:12:00.456Z,10.00
2022-11-10T06:14:28.395Z,10.00
2022-11-10T06:16:56.169Z,10.00
2022-11-10T06:19:23.990Z,9.90
2022-11-10T06:21:57.075Z,9.90
2022-11-10T06:24:28.441Z,9.90
2022-11-10T06:26:56.143Z,9.90
2022-11-10T06:29:26.889Z,9.90
2022-11-10T06:31:54.898Z,10.00
2022-11-10T06:34:22.579Z,8.90
2022-11-10T06:36:50.409Z,10.00
2022-11-10T06:39:18.139Z,10.00
2022-11-10T06:41:45.918Z,10.00
2022-11-10T06:44:13.752Z,10.00
2022-11-10T06:46:42.856Z,10.00
2022-11-10T06:49:10.693Z,10.10
2022-11-10T06:51:38.411Z,10.10
2022-11-10T06:54:06.575Z,10.10
2022-11-10T06:56:34.844Z,10.20
2022-11-10T06:59:02.860Z,12.30
2022-11-10T07:01:30.564Z,10.20
2022-11-10T07:04:18.817Z,10.10
2022-11-10T07:06:48.049Z,10.10
2022-11-10T07:09:16.225Z,10.10
2022-11-10T07:11:44.111Z,10.20
2022-11-10T07:14:12.115Z,10.20
2022-11-10T07:16:40.073Z,10.20
2022-11-10T07:19:09.239Z,10.00
2022-11-10T07:21:36.990Z,9.90
2022-11-10T07:24:05.356Z,9.80
2022-11-10T07:26:33.114Z,9.80
2022-11-10T07:29:01.150Z,9.80
2022-11-10T07:31:29.104Z,9.80
2022-11-10T07:33:56.825Z,9.80
2022-11-10T07:36:28.864Z,9.90
2022-11-10T07:38:56.765Z,9.90
2022-11-10T07:41:24.510Z,10.00
2022-11-10T07:43:52.205Z,10.00
2022-11-10T07:46:20.001Z,10.00
2022-11-10T07:48:48.534Z,10.00
2022-11-10T07:51:16.388Z,10.70
2022-11-10T07:53:45.534Z,10.00
2022-11-10T07:56:14.077Z,10.00
2022-11-10T08:01:11.238Z,10.10
2022-11-10T08:03:38.949Z,10.10
2022-11-10T08:06:07.241Z,10.10
2022-11-10T08:08:34.988Z,10.10
2022-11-10T08:11:04.029Z,10.10
2022-11-10T08:13:31.782Z,10.10
2022-11-10T08:15:59.866Z,10.20
2022-11-10T08:18:33.948Z,10.20
2022-11-10T08:21:03.500Z,10.30
2022-11-10T08:23:34.648Z,10.20
2022-11-10T08:26:04.118Z,10.20
2022-11-10T08:28:32.191Z,11.20
2022-11-10T08:31:05.149Z,10.40
2022-11-10T08:33:33.527Z,10.40
2022-11-10T08:36:02.273Z,10.40
2022-11-10T08:38:30.324Z,10.50
2022-11-10T08:40:58.890Z,10.50
2022-11-10T08:43:28.459Z,10.50
2022-11-10T08:45:57.071Z,10.60
2022-11-10T08:48:25.205Z,10.60
2022-11-10T08:53:24.602Z,10.70
2022-11-10T08:55:53.913Z,10.80
2022-11-10T08:58:24.171Z,10.80
2022-11-10T09:00:54.005Z,10.90
2022-11-10T09:03:24.306Z,10.90
2022-11-10T09:05:58.222Z,10.90
2022-11-10T09:08:27.562Z,11.00
2022-11-10T09:10:56.234Z,11.10
2022-11-10T09:13:29.396Z,11.20
2022-11-10T09:16:02.624Z,11.30
2022-11-10T09:18:30.905Z,11.40
2022-11-10T09:20:58.723Z,11.50
2022-11-10T09:23:28.225Z,11.60
2022-11-10T09:25:57.231Z,11.60
2022-11-10T09:28:25.377Z,11.70
2022-11-10T09:30:54.694Z,11.80
2022-11-10T09:33:24.248Z,11.80
2022-11-10T09:35:52.631Z,11.80
2022-11-10T09:38:20.719Z,11.80
2022-11-10T09:41:00.899Z,12.00
2022-11-10T09:43:35.676Z,12.00
2022-11-10T09:46:11.967Z,12.20
2022-11-10T09:48:48.552Z,12.20
2022-11-10T09:51:20.204Z,12.20
2022-11-10T09:53:52.504Z,12.20
2022-11-10T09:56:23.723Z,12.30
2022-11-10T09:58:52.678Z,12.30
2022-11-10T10:01:31.166Z,12.50
2022-11-10T10:04:13.275Z,12.50
2022-11-10T10:07:09.697Z,12.60
2022-11-10T10:09:45.454Z,12.60
2022-11-10T10:12:25.126Z,12.60
2022-11-10T10:15:14.263Z,12.50
2022-11-10T10:17:50.348Z,12.50
2022-11-10T10:20:28.497Z,11.60
2022-11-10T10:23:13.680Z,12.40
2022-11-10T10:25:45.216Z,11.50
2022-11-10T10:28:21.363Z,12.30
2022-11-10T10:30:49.514Z,12.30
2022-11-10T10:33:19.279Z,12.30
2022-11-10T10:35:50.675Z,12.30
2022-11-10T10:38:24.579Z,12.30
2022-11-10T10:40:53.636Z,12.40
2022-11-10T10:43:21.389Z,12.40
2022-11-10T10:46:06.516Z,12.40
2022-11-10T10:48:34.476Z,12.60
2022-11-10T10:51:03.582Z,12.70
2022-11-10T10:53:31.482Z,12.80
2022-11-10T10:56:02.092Z,12.80
2022-11-10T10:58:31.710Z,13.00
2022-11-10T11:01:06.510Z,13.10
2022-11-10T11:03:45.376Z,13.10
2022-11-10T11:06:27.001Z,12.90
2022-11-10T11:08:59.741Z,12.90
2022-11-10T11:11:30.276Z,13.00
2022-11-10T11:14:23.210Z,13.00
2022-11-10T11:16:53.076Z,13.10
2022-11-10T11:19:23.279Z,13.20
2022-11-10T11:22:12.433Z,13.30
2022-11-10T11:24:46.993Z,13.40
2022-11-10T11:27:19.639Z,13.50
2022-11-10T11:30:06.325Z,13.60
2022-11-10T11:32:55.366Z,13.60
2022-11-10T11:35:31.403Z,13.70
2022-11-10T11:38:11.499Z,13.70
2022-11-10T11:40:49.024Z,13.80
2022-11-10T11:43:35.615Z,13.80
2022-11-10T11:46:12.623Z,13.90
2022-11-10T11:48:51.877Z,14.10
2022-11-10T11:51:25.106Z,14.10
2022-11-10T11:54:14.517Z,14.20
2022-11-10T11:56:43.843Z,14.20
2022-11-10T11:59:37.108Z,14.20
2022-11-10T12:02:31.156Z,14.20
2022-11-10T12:05:11.421Z,14.20
2022-11-10T12:07:50.357Z,14.20
2022-11-10T12:10:33.746Z,14.00
2022-11-10T12:13:22.755Z,13.90
2022-11-10T12:15:58.191Z,14.00
2022-11-10T12:18:36.172Z,14.00
2022-11-10T12:21:22.891Z,14.10
2022-11-10T12:24:09.890Z,14.10
2022-11-10T12:26:46.580Z,14.00
2022-11-10T12:29:28.206Z,14.10
2022-11-10T12:32:03.450Z,14.10
2022-11-10T12:34:37.181Z,14.00
2022-11-10T12:37:09.094Z,14.00
2022-11-10T12:39:47.133Z,14.00
2022-11-10T12:42:21.861Z,14.00
2022-11-10T12:45:00.657Z,14.00
2022-11-10T12:47:32.702Z,13.10
2022-11-10T12:50:22.094Z,14.00
2022-11-10T12:52:56.114Z,14.00
2022-11-10T12:55:33.316Z,14.10
2022-11-10T12:58:04.658Z,14.30
2022-11-10T13:00:37.511Z,14.20
2022-11-10T13:03:06.037Z,14.20
2022-11-10T13:05:38.240Z,14.20
2022-11-10T13:08:22.866Z,14.20
2022-11-10T13:10:54.704Z,14.30
2022-11-10T13:13:25.559Z,14.20
2022-11-10T13:15:57.359Z,14.40
2022-11-10T13:18:43.660Z,14.40
2022-11-10T13:21:11.411Z,14.40
2022-11-10T13:24:16.410Z,14.40
2022-11-10T13:26:53.055Z,14.50
2022-11-10T13:29:32.075Z,14.50
2022-11-10T13:32:01.557Z,14.50
2022-11-10T13:34:34.446Z,14.50
2022-11-10T13:37:03.493Z,14.60
2022-11-10T13:39:33.450Z,14.50
2022-11-10T13:42:04.283Z,14.50
2022-11-10T13:44:36.320Z,14.50
2022-11-10T13:47:41.105Z,14.60
2022-11-10T13:50:22.928Z,14.60
2022-11-10T13:53:03.765Z,14.80
2022-11-10T13:55:56.835Z,14.70
2022-11-10T13:58:28.613Z,14.80
2022-11-10T14:01:22.855Z,14.80
2022-11-10T14:04:00.351Z,14.80
2022-11-10T14:06:38.357Z,14.60
2022-11-10T14:09:18.246Z,14.50
2022-11-10T14:11:50.494Z,14.50
2022-11-10T14:14:22.442Z,14.50
2022-11-10T14:16:54.025Z,14.50
2022-11-10T14:19:30.808Z,14.50
2022-11-10T14:22:01.853Z,14.50
2022-11-10T14:24:32.293Z,14.50
2022-11-10T14:27:05.390Z,14.50
2022-11-10T14:29:38.316Z,14.50
2022-11-10T14:32:15.874Z,14.60
2022-11-10T14:34:50.399Z,14.60
2022-11-10T14:37:24.105Z,14.60
2022-11-10T14:39:54.748Z,14.60
2022-11-10T14:42:25.236Z,14.70
2022-11-10T14:45:07.336Z,14.70
2022-11-10T14:47:37.569Z,14.70
2022-11-10T14:50:18.195Z,14.60
2022-11-10T14:52:48.963Z,14.70
2022-11-10T14:55:20.838Z,14.70
2022-11-10T14:57:51.458Z,14.60
2022-11-10T15:00:25.044Z,14.70
2022-11-10T15:05:24.171Z,14.60
2022-11-10T15:07:57.075Z,14.60
2022-11-10T15:10:27.360Z,14.60
2022-11-10T15:13:06.449Z,14.50
2022-11-10T15:15:34.267Z,14.50
2022-11-10T15:18:03.368Z,14.50
2022-11-10T15:20:34.463Z,14.50
2022-11-10T15:23:04.976Z,14.50
2022-11-10T15:25:36.716Z,14.50
2022-11-10T15:28:22.193Z,14.40
2022-11-10T15:33:26.805Z,14.20
2022-11-10T15:35:56.226Z,14.20
2022-11-10T15:38:30.431Z,14.20
2022-11-10T15:41:16.086Z,14.00
2022-11-10T15:43:44.156Z,14.00
2022-11-10T15:46:18.077Z,14.00
2022-11-10T15:48:49.841Z,13.90
2022-11-10T15:51:25.660Z,13.90
2022-11-10T15:53:54.613Z,13.90
2022-11-10T15:56:24.125Z,13.80
2022-11-10T15:58:57.672Z,13.80
2022-11-10T16:01:28.587Z,13.80
2022-11-10T16:03:57.853Z,13.70
2022-11-10T16:06:25.649Z,13.70
2022-11-10T16:08:53.661Z,13.70
2022-11-10T16:11:22.586Z,13.70
2022-11-10T16:13:52.764Z,13.70
2022-11-10T16:16:23.669Z,13.70
2022-11-10T16:18:51.687Z,13.60
2022-11-10T16:21:22.795Z,13.60
2022-11-10T16:23:50.924Z,13.60
2022-11-10T16:26:21.321Z,13.60
2022-11-10T16:28:49.403Z,13.50
2022-11-10T16:31:18.709Z,13.50
2022-11-10T16:33:47.657Z,13.50
2022-11-10T16:36:24.316Z,13.40
2022-11-10T16:38:52.917Z,13.30
2022-11-10T16:41:20.692Z,13.30
2022-11-10T16:43:48.509Z,13.20
2022-11-10T16:46:20.538Z,13.20
2022-11-10T16:48:49.559Z,13.10
2022-11-10T16:51:17.977Z,13.10
2022-11-10T16:53:47.129Z,13.10
2022-11-10T16:56:16.413Z,13.10
2022-11-10T16:58:44.168Z,12.30
2022-11-10T17:01:20.076Z,13.00
2022-11-10T17:03:50.415Z,13.00
2022-11-10T17:06:19.277Z,13.00
2022-11-10T17:08:51.283Z,13.00
2022-11-10T17:11:19.564Z,12.90
2022-11-10T17:13:47.398Z,12.90
2022-11-10T17:16:21.739Z,13.00
2022-11-10T17:18:50.178Z,13.00
2022-11-10T17:21:18.024Z,13.00
2022-11-10T17:23:45.883Z,12.90
2022-11-10T17:26:17.154Z,12.90
2022-11-10T17:31:13.839Z,12.80
2022-11-10T17:33:41.594Z,12.80
2022-11-10T17:36:14.250Z,12.70
2022-11-10T17:38:42.759Z,12.70
2022-11-10T17:41:17.562Z,12.60
2022-11-10T17:43:46.077Z,12.60
2022-11-10T17:46:14.012Z,12.60
2022-11-10T17:48:41.976Z,12.60
2022-11-10T17:51:12.697Z,12.50
2022-11-10T17:53:40.500Z,12.50
2022-11-10T17:56:08.642Z,12.50
2022-11-10T17:58:37.876Z,12.40
2022-11-10T18:01:13.122Z,12.40
2022-11-10T18:03:41.313Z,12.40
2022-11-10T18:06:11.827Z,12.40
2022-11-10T18:08:39.529Z,12.30
2022-11-10T18:11:07.329Z,12.20
2022-11-10T18:13:35.080Z,12.20
2022-11-10T18:16:04.419Z,12.10
2022-11-10T18:18:32.213Z,12.10
2022-11-10T18:20:59.952Z,12.00
2022-11-10T18:23:27.806Z,12.00
2022-11-10T18:25:55.530Z,12.00
2022-11-10T18:28:23.224Z,12.00
2022-11-10T18:30:50.970Z,11.80
2022-11-10T18:33:20.291Z,11.80
2022-11-10T18:35:48.216Z,11.80
2022-11-10T18:38:15.965Z,11.80
2022-11-10T18:40:43.673Z,11.80
2022-11-10T18:43:11.533Z,11.80
2022-11-10T18:45:39.286Z,11.90
2022-11-10T18:48:07.822Z,11.90
2022-11-10T18:50:39.804Z,11.90
2022-11-10T18:53:07.610Z,11.90
2022-11-10T18:55:35.402Z,11.90
2022-11-10T18:58:03.942Z,11.80
2022-11-10T19:00:31.729Z,11.70
2022-11-10T19:02:59.580Z,11.60
2022-11-10T19:05:27.285Z,11.60
2022-11-10T19:07:56.360Z,11.50
2022-11-10T19:10:24.133Z,11.40
2022-11-10T19:12:51.822Z,11.40
2022-11-10T19:17:47.662Z,11.40
2022-11-10T19:20:16.307Z,11.40
2022-11-10T19:22:44.312Z,11.40
2022-11-10T19:25:13.466Z,11.50
2022-11-10T19:27:41.291Z,11.50
2022-11-10T19:37:43.145Z,11.40
2022-11-10T19:40:13.513Z,11.40
2022-11-10T19:42:41.263Z,11.50
2022-11-10T19:45:10.144Z,11.50
2022-11-10T19:47:37.857Z,11.50
2022-11-10T19:50:06.130Z,11.50
2022-11-10T19:52:33.916Z,11.50
2022-11-10T19:55:01.661Z,11.50
2022-11-10T19:57:30.782Z,11.50
2022-11-10T19:59:58.536Z,11.50
2022-11-10T20:02:26.318Z,11.50
2022-11-10T20:05:11.573Z,11.50
2022-11-10T20:07:56.968Z,11.50
2022-11-10T20:10:24.755Z,11.50
2022-11-10T20:12:53.852Z,11.50
2022-11-10T20:15:21.551Z,11.40
2022-11-10T20:17:49.264Z,11.40
2022-11-10T20:20:17.709Z,11.40
2022-11-10T20:22:45.552Z,11.40
2022-11-10T20:25:13.799Z,11.40
2022-11-10T20:27:41.521Z,11.40
2022-11-10T20:30:11.823Z,11.40
2022-11-10T20:35:08.228Z,11.30
2022-11-10T20:37:35.952Z,11.30
2022-11-10T20:40:10.412Z,11.20
2022-11-10T20:42:46.677Z,11.20
2022-11-10T20:45:15.863Z,11.10
2022-11-10T20:47:43.678Z,11.10
2022-11-10T20:50:15.448Z,11.00
2022-11-10T20:52:45.034Z,11.10
2022-11-10T20:55:18.016Z,11.10
2022-11-10T20:57:46.348Z,11.00
2022-11-10T21:00:16.109Z,10.90
2022-11-10T21:02:43.915Z,10.90
2022-11-10T21:07:39.861Z,10.80
2022-11-10T21:10:08.331Z,10.70
2022-11-10T21:12:51.101Z,10.70
2022-11-10T21:15:21.243Z,10.70
2022-11-10T21:17:49.130Z,10.70
2022-11-10T21:20:17.262Z,10.60
2022-11-10T21:22:45.017Z,10.60
2022-11-10T21:25:13.496Z,10.70
2022-11-10T21:27:41.270Z,10.70
2022-11-10T21:30:22.486Z,10.70
2022-11-10T21:32:51.567Z,10.70
2022-11-10T21:35:19.491Z,10.70
2022-11-10T21:37:47.255Z,10.70
2022-11-10T21:40:15.440Z,10.70
2022-11-10T21:42:43.326Z,10.70
2022-11-10T21:47:39.703Z,10.70
2022-11-10T21:50:09.088Z,10.70
2022-11-10T21:52:36.787Z,10.60
2022-11-10T21:55:05.031Z,10.60
2022-11-10T21:57:32.787Z,10.60
2022-11-10T22:00:00.584Z,10.50
2022-11-10T22:02:28.346Z,10.40
2022-11-10T22:04:56.244Z,10.40
2022-11-10T22:07:25.345Z,10.30
2022-11-10T22:10:10.979Z,10.30
2022-11-10T22:12:56.391Z,10.30
2022-11-10T22:15:41.956Z,10.30
2022-11-10T22:18:31.874Z,10.20
2022-11-10T22:20:59.773Z,10.10
2022-11-10T22:23:46.583Z,10.10
2022-11-10T22:26:14.742Z,10.10
2022-11-10T22:28:42.873Z,10.10
2022-11-10T22:31:11.466Z,10.20
2022-11-10T22:33:41.449Z,10.20
2022-11-10T22:36:12.435Z,10.20
2022-11-10T22:38:43.270Z,10.20
2022-11-10T22:41:35.174Z,10.20
2022-11-10T22:44:06.169Z,10.20
2022-11-10T22:46:36.120Z,10.20
2022-11-10T22:49:07.586Z,10.20
2022-11-10T22:51:36.369Z,10.30
2022-11-10T22:54:09.204Z,10.30
2022-11-10T22:56:38.714Z,10.30
2022-11-10T22:59:06.904Z,10.40
2022-11-10T23:01:37.050Z,10.30
2022-11-10T23:06:39.020Z,10.30
2022-11-10T23:09:08.666Z,10.30
2022-11-10T23:11:37.394Z,10.20
2022-11-10T23:14:05.396Z,10.10
2022-11-10T23:16:38.495Z,10.10
2022-11-10T23:19:08.786Z,10.20
2022-11-10T23:21:39.433Z,10.10
2022-11-10T23:29:06.000Z,10.00
2022-11-10T23:31:35.946Z,10.00
2022-11-10T23:34:03.767Z,10.00
2022-11-10T23:36:33.330Z,10.00
2022-11-10T23:39:01.422Z,10.00
2022-11-10T23:41:32.503Z,10.00
2022-11-10T23:44:00.385Z,10.00
2022-11-10T23:46:30.309Z,10.00
2022-11-10T23:49:01.030Z,10.00
2022-11-10T23:51:28.929Z,10.00
2022-11-10T23:53:56.711Z,10.10
2022-11-10T23:56:24.494Z,10.10
2022-11-10T23:58:53.588Z,10.10
